createdAt,value
2019-02-15T00:01:40.892Z,7.67
2019-02-15T00:06:44.195Z,7.27
2019-02-15T00:11:47.433Z,8.20
2019-02-15T00:16:50.887Z,6.47
2019-02-15T00:21:54.577Z,9.45
2019-02-15T00:26:57.837Z,5.83
2019-02-15T00:32:01.181Z,12.35
2019-02-15T00:37:04.576Z,4.77
2019-02-15T00:42:07.887Z,4.47
2019-02-15T00:47:21.329Z,5.45
2019-02-15T00:54:30.906Z,5.83
2019-02-15T00:59:40.274Z,12.03
2019-02-15T01:05:04.601Z,8.80
2019-02-15T01:10:17.041Z,4.47
2019-02-15T01:15:20.268Z,3.93
2019-02-15T01:20:23.760Z,7.83
2019-02-15T01:25:27.022Z,7.77
2019-02-15T01:32:37.701Z,6.87
2019-02-15T01:37:50.086Z,5.07
2019-02-15T01:42:58.726Z,5.87
2019-02-15T01:48:02.048Z,4.20
2019-02-15T01:53:05.407Z,8.40
2019-02-15T01:58:08.629Z,4.77
2019-02-15T02:03:11.986Z,7.20
2019-02-15T02:08:18.598Z,4.87
2019-02-15T02:13:21.885Z,14.13
2019-02-15T02:18:25.228Z,4.63
2019-02-15T02:23:32.564Z,5.77
2019-02-15T02:28:35.836Z,9.33
2019-02-15T02:33:39.167Z,4.37
2019-02-15T02:38:42.525Z,10.40
2019-02-15T02:43:45.839Z,8.57
2019-02-15T02:48:49.128Z,9.20
2019-02-15T02:53:52.431Z,4.50
2019-02-15T02:58:55.662Z,10.40
2019-02-15T03:03:58.916Z,6.77
2019-02-15T03:09:02.138Z,8.73
2019-02-15T03:14:11.318Z,7.28
2019-02-15T03:19:08.759Z,10.07
2019-02-15T03:24:12.146Z,6.70
2019-02-15T03:29:15.448Z,4.05
2019-02-15T03:34:18.716Z,8.83
2019-02-15T03:39:29.086Z,5.00
2019-02-15T03:44:32.405Z,3.63
2019-02-15T03:49:35.634Z,4.70
2019-02-15T03:54:40.155Z,9.97
2019-02-15T03:59:43.372Z,5.97
2019-02-15T04:04:46.619Z,4.07
2019-02-15T04:09:52.709Z,6.63
2019-02-15T04:14:56.113Z,4.27
2019-02-15T04:19:59.398Z,22.37
2019-02-15T04:25:02.713Z,4.13
2019-02-15T04:30:07.145Z,2.50
2019-02-15T04:35:10.378Z,7.00
2019-02-15T04:40:13.661Z,5.53
2019-02-15T04:45:16.894Z,8.10
2019-02-15T04:50:20.178Z,7.30
2019-02-15T04:55:23.487Z,4.33
2019-02-15T05:00:26.845Z,6.77
2019-02-15T05:05:30.107Z,7.77
2019-02-15T05:10:34.357Z,3.77
2019-02-15T05:15:37.729Z,8.50
2019-02-15T05:20:42.036Z,8.83
2019-02-15T05:25:45.235Z,6.23
2019-02-15T05:30:48.590Z,5.33
2019-02-15T05:35:51.804Z,7.70
2019-02-15T05:40:55.109Z,8.33
2019-02-15T05:45:58.503Z,5.80
2019-02-15T05:51:01.893Z,7.80
2019-02-15T05:56:05.129Z,8.47
2019-02-15T06:01:08.371Z,7.57
2019-02-15T06:06:11.710Z,13.47
2019-02-15T06:11:14.927Z,6.65
2019-02-15T06:16:18.320Z,5.28
2019-02-15T06:21:21.547Z,4.53
2019-02-15T06:26:25.617Z,3.73
2019-02-15T06:31:28.899Z,6.97
2019-02-15T06:36:36.105Z,3.23
2019-02-15T06:41:39.322Z,8.20
2019-02-15T06:46:42.614Z,4.57
2019-02-15T06:51:58.593Z,2.90
2019-02-15T06:57:02.829Z,6.40
2019-02-15T07:02:14.104Z,7.57
2019-02-15T07:07:17.350Z,5.67
2019-02-15T07:12:20.702Z,3.67
2019-02-15T07:17:24.144Z,7.93
2019-02-15T07:22:27.415Z,6.30
2019-02-15T07:27:30.678Z,16.40
2019-02-15T07:32:33.991Z,10.83
2019-02-15T07:37:37.291Z,9.67
2019-02-15T07:42:40.614Z,11.67
2019-02-15T07:47:43.910Z,9.37
2019-02-15T07:52:47.265Z,14.70
2019-02-15T07:57:50.606Z,11.97
2019-02-15T08:02:53.843Z,9.83
2019-02-15T08:07:57.256Z,9.40
2019-02-15T08:13:00.614Z,15.30
2019-02-15T08:18:03.842Z,11.40
2019-02-15T08:23:07.113Z,12.97
2019-02-15T08:28:10.398Z,9.87
2019-02-15T08:33:13.739Z,5.77
2019-02-15T08:38:17.058Z,10.67
2019-02-15T08:43:20.396Z,12.37
2019-02-15T08:48:23.736Z,18.03
2019-02-15T08:53:27.091Z,8.60
2019-02-15T08:58:30.322Z,8.90
2019-02-15T09:03:33.525Z,9.90
2019-02-15T09:08:36.756Z,11.00
2019-02-15T09:13:40.037Z,11.73
2019-02-15T09:18:43.361Z,15.40
2019-02-15T09:23:46.721Z,13.53
2019-02-15T09:28:55.954Z,12.90
2019-02-15T09:33:59.209Z,10.97
2019-02-15T09:39:02.590Z,13.00
2019-02-15T09:44:05.833Z,10.77
2019-02-15T09:49:09.141Z,13.40
2019-02-15T09:54:12.337Z,14.17
2019-02-15T09:59:15.554Z,16.53
2019-02-15T10:04:18.850Z,17.10
2019-02-15T10:09:22.237Z,12.60
2019-02-15T10:14:25.444Z,17.43
2019-02-15T10:19:28.743Z,11.33
2019-02-15T10:24:32.070Z,11.57
2019-02-15T10:29:35.408Z,10.10
2019-02-15T10:34:38.721Z,15.97
2019-02-15T10:39:41.926Z,10.60
2019-02-15T10:44:45.244Z,10.27
2019-02-15T10:49:48.445Z,10.43
2019-02-15T10:54:51.731Z,9.87
2019-02-15T10:59:55.054Z,9.63
2019-02-15T11:04:58.560Z,15.80
2019-02-15T11:10:01.925Z,14.27
2019-02-15T11:15:05.705Z,13.23
2019-02-15T11:20:10.317Z,16.17
2019-02-15T11:25:13.641Z,17.97
2019-02-15T11:30:16.960Z,15.70
2019-02-15T11:35:20.336Z,15.33
2019-02-15T11:40:23.620Z,17.97
2019-02-15T11:45:26.980Z,14.33
2019-02-15T11:50:33.458Z,17.57
2019-02-15T11:55:36.771Z,16.27
2019-02-15T12:00:40.122Z,20.33
2019-02-15T12:05:43.430Z,18.03
2019-02-15T12:10:46.737Z,19.65
2019-02-15T12:15:50.001Z,20.83
2019-02-15T12:20:53.321Z,21.97
2019-02-15T12:25:56.619Z,18.73
2019-02-15T12:30:59.937Z,14.27
2019-02-15T12:36:03.437Z,15.23
2019-02-15T12:41:06.666Z,16.63
2019-02-15T12:46:09.885Z,12.47
2019-02-15T12:51:13.297Z,14.63
2019-02-15T12:56:16.683Z,15.43
2019-02-15T13:01:20.004Z,14.43
2019-02-15T13:06:28.722Z,13.93
2019-02-15T13:11:26.829Z,12.67
2019-02-15T13:16:30.272Z,11.20
2019-02-15T13:21:33.556Z,8.77
2019-02-15T13:26:36.807Z,7.57
2019-02-15T13:31:40.421Z,8.03
2019-02-15T13:36:43.801Z,11.90
2019-02-15T13:41:47.199Z,8.67
2019-02-15T13:46:50.510Z,9.83
2019-02-15T13:51:53.881Z,8.47
2019-02-15T13:56:57.354Z,7.53
2019-02-15T14:02:00.620Z,6.13
2019-02-15T14:07:13.676Z,2.60
2019-02-15T14:12:16.962Z,3.17
2019-02-15T14:17:20.278Z,5.97
2019-02-15T14:22:23.620Z,5.67
2019-02-15T14:27:26.833Z,5.60
2019-02-15T14:32:30.085Z,7.73
2019-02-15T14:37:33.376Z,5.90
2019-02-15T14:42:36.678Z,9.37
2019-02-15T14:47:39.973Z,8.57
2019-02-15T14:52:43.314Z,9.73
2019-02-15T14:57:47.074Z,11.23
2019-02-15T15:02:50.257Z,6.47
2019-02-15T15:07:53.566Z,9.10
2019-02-15T15:12:56.864Z,7.60
2019-02-15T15:18:10.701Z,9.23
2019-02-15T15:23:03.482Z,10.23
2019-02-15T15:28:06.723Z,11.07
2019-02-15T15:33:10.149Z,16.30
2019-02-15T15:38:13.533Z,10.17
2019-02-15T15:43:16.844Z,10.03
2019-02-15T15:48:22.890Z,8.40
2019-02-15T15:53:24.232Z,7.47
2019-02-15T15:58:27.555Z,7.53
2019-02-15T16:03:30.823Z,10.78
2019-02-15T16:08:34.196Z,8.10
2019-02-15T16:13:37.962Z,9.00
2019-02-15T16:18:41.227Z,7.77
2019-02-15T16:23:45.521Z,8.03
2019-02-15T16:28:48.905Z,12.70
2019-02-15T16:33:52.286Z,13.00
2019-02-15T16:38:55.660Z,9.83
2019-02-15T16:43:58.918Z,11.22
2019-02-15T16:49:02.288Z,8.67
2019-02-15T16:54:05.549Z,9.07
2019-02-15T16:59:08.803Z,4.63
2019-02-15T17:04:12.106Z,7.83
2019-02-15T17:09:17.484Z,7.30
2019-02-15T17:14:20.777Z,8.23
2019-02-15T17:19:24.081Z,9.00
2019-02-15T17:24:27.333Z,9.50
2019-02-15T17:29:30.650Z,8.73
2019-02-15T17:34:33.889Z,10.17
2019-02-15T17:39:37.177Z,9.70
2019-02-15T17:44:40.474Z,11.47
2019-02-15T17:49:43.805Z,6.80
2019-02-15T17:54:47.053Z,6.67
2019-02-15T17:59:50.303Z,10.60
2019-02-15T18:04:54.166Z,7.23
2019-02-15T18:09:58.361Z,7.80
2019-02-15T18:15:01.654Z,5.97
2019-02-15T18:26:48.379Z,10.07
2019-02-15T18:31:51.964Z,7.83
2019-02-15T18:36:57.082Z,10.33
2019-02-15T18:42:00.655Z,9.87
2019-02-15T18:47:04.402Z,12.10
2019-02-15T18:52:07.998Z,12.73
2019-02-15T18:57:11.678Z,14.30
2019-02-15T19:02:15.793Z,8.90
2019-02-15T19:07:19.306Z,9.28
2019-02-15T19:12:22.930Z,9.73
2019-02-15T19:17:27.397Z,10.97
2019-02-15T19:22:30.890Z,10.57
2019-02-15T19:27:34.508Z,9.10
2019-02-15T19:32:38.114Z,7.87
2019-02-15T19:37:41.885Z,9.40
2019-02-15T19:42:46.854Z,8.23
2019-02-15T19:47:50.464Z,10.43
2019-02-15T19:52:54.173Z,9.23
2019-02-15T19:57:57.820Z,8.20
2019-02-15T20:03:01.299Z,10.90
2019-02-15T20:08:04.965Z,9.90
2019-02-15T20:13:08.673Z,11.53
2019-02-15T20:18:12.171Z,7.60
2019-02-15T20:23:15.587Z,7.57
2019-02-15T20:28:19.013Z,7.13
2019-02-15T20:33:23.348Z,7.97
2019-02-15T20:38:27.140Z,13.00
2019-02-15T20:43:30.927Z,8.90
2019-02-15T20:48:34.548Z,10.17
2019-02-15T20:53:38.399Z,7.97
2019-02-15T20:58:42.476Z,8.03
2019-02-15T21:03:45.871Z,8.33
2019-02-15T21:08:49.420Z,8.23
2019-02-15T21:13:52.866Z,8.97
2019-02-15T21:18:56.948Z,7.17
2019-02-15T21:24:00.623Z,12.37
2019-02-15T21:29:04.066Z,5.77
2019-02-15T21:34:07.972Z,6.30
2019-02-15T21:39:11.403Z,7.07
2019-02-15T21:44:14.916Z,4.53
2019-02-15T21:49:18.462Z,3.50
2019-02-15T21:54:22.967Z,5.20
2019-02-15T21:59:26.362Z,4.67
2019-02-15T22:04:29.823Z,6.53
2019-02-15T22:09:33.211Z,8.00
2019-02-15T22:14:36.791Z,8.77
2019-02-15T22:19:40.431Z,12.30
2019-02-15T22:24:44.009Z,13.47
2019-02-15T22:29:47.595Z,12.80
2019-02-15T22:34:51.015Z,18.95
2019-02-15T22:39:56.576Z,15.77
2019-02-15T22:44:59.935Z,10.45
2019-02-15T22:50:03.463Z,16.17
2019-02-15T22:55:06.829Z,6.47
2019-02-15T23:00:13.338Z,9.30
2019-02-15T23:05:16.735Z,6.53
2019-02-15T23:10:20.244Z,7.77
2019-02-15T23:15:23.725Z,9.77
2019-02-15T23:20:27.114Z,9.28
2019-02-15T23:25:30.521Z,7.13
2019-02-15T23:30:33.923Z,7.40
2019-02-15T23:35:37.283Z,8.13
2019-02-15T23:40:40.802Z,4.93
2019-02-15T23:45:44.996Z,4.53
2019-02-15T23:50:54.358Z,3.80
2019-02-15T23:55:51.165Z,5.70
